Shelby — WCV6157 — position and weather

sailwx.info

Track history (hours):
 
Tides and Currents Weather Stations Pressure Air Temp Water Temp Dewpoint Dewpoint Depression Visibility Wind Speed Wind Dir Waves Ship Positions

Shelby

Owner: WEEKS MARINE, INC., CRANFORD, NJ. More information available from US FCC via Universal Licensing System and Coast Guard Vessel Documentation Center.

Last reported at 2015-May-30 18:33 UTC. Time now 2015-May-30 18:38 UTC.
Position N 40°41' W 074°04'.

Length 22 m; draft 3.1 m.

Type: Tug. MMSI: 366902344.

Date/timePositionNaut miles runAvg speedWind from/ knotsBaromVisibWave heightAir tempDewpointWater temp
2015-May-30 18:33N 40°41' W 074°04'0 0.0
2015-May-30 17:34N 40°41' W 074°04'0 0.0
2015-May-30 16:33N 40°41' W 074°04'0 0.0
2015-May-30 15:33N 40°41' W 074°04'0 0.0
2015-May-30 14:34N 40°41' W 074°05'0 0.0
2015-May-30 13:34N 40°41' W 074°05'0 0.0
2015-May-30 12:33N 40°41' W 074°05'0 0.0
2015-May-30 11:34N 40°41' W 074°04'0 0.0
2015-May-30 10:34N 40°41' W 074°04'0 0.0
2015-May-30 09:33N 40°41' W 074°04'0 0.0
2015-May-30 08:34N 40°41' W 074°04'0 0.0
2015-May-30 07:33N 40°41' W 074°04'0 0.0
2015-May-30 06:33N 40°41' W 074°04'0 0.0
2015-May-30 05:33N 40°41' W 074°04'0 0.0
2015-May-30 04:34N 40°41' W 074°04'0 0.0
2015-May-30 03:34N 40°41' W 074°04'0 0.0
2015-May-30 02:33N 40°41' W 074°04'0 0.0
2015-May-30 01:33N 40°41' W 074°04'0 0.0
2015-May-30 00:33N 40°41' W 074°04'0 0.0
2015-May-29 23:33N 40°41' W 074°04'0 0.0
2015-May-29 22:34N 40°41' W 074°04'0 0.0
2015-May-29 21:33N 40°41' W 074°04'0 0.0
2015-May-29 20:33N 40°41' W 074°04'0 0.0
2015-May-29 19:34N 40°41' W 074°04'0 0.0
2015-May-29 18:33N 40°41' W 074°04'0 0.0
2015-May-29 17:33N 40°41' W 074°04'0 0.0
2015-May-29 16:33N 40°41' W 074°04'0 0.0
2015-May-29 15:33N 40°41' W 074°04'0 0.0
2015-May-29 14:34N 40°41' W 074°04'4 3.9
2015-May-29 13:34N 40°39' W 074°09'3 2.9
2015-May-29 12:33N 40°41' W 074°08'0 0.0
2015-May-29 11:34N 40°41' W 074°08'0 0.0
2015-May-29 10:33N 40°41' W 074°08'3 3.2
2015-May-29 09:33N 40°39' W 074°06'2 1.8
2015-May-29 08:34N 40°40' W 074°04'0 0.0
2015-May-29 07:34N 40°40' W 074°04'0 0.0
2015-May-29 06:33N 40°40' W 074°04'0 0.0
2015-May-29 05:33N 40°40' W 074°04'0 0.0
2015-May-29 04:34N 40°40' W 074°04'0 0.0
2015-May-29 03:34N 40°40' W 074°04'0 0.0
2015-May-29 02:34N 40°40' W 074°04'0 0.0
2015-May-29 01:33N 40°40' W 074°04'0 0.0
2015-May-29 00:34N 40°40' W 074°04'0 0.0
2015-May-28 23:33N 40°40' W 074°04'0 0.0
2015-May-28 22:33N 40°40' W 074°04'0 0.1
2015-May-28 21:34N 40°40' W 074°05'0 0.1
2015-May-28 20:33N 40°41' W 074°04'0 0.2
2015-May-28 19:34N 40°41' W 074°04'0 0.0
2015-May-28 18:34N 40°41' W 074°04'0 0.1
2015-May-28 17:33N 40°40' W 074°04'0 0.2
2015-May-28 16:33N 40°41' W 074°04'0 0.0
2015-May-28 15:33N 40°41' W 074°04'0 0.0
2015-May-28 14:34N 40°41' W 074°04'0 0.1
2015-May-28 13:34N 40°41' W 074°05'0 0.0
2015-May-28 12:33N 40°41' W 074°05'0 0.0
2015-May-28 11:33N 40°41' W 074°04'0 0.0
2015-May-28 10:34N 40°41' W 074°04'0 0.0
2015-May-28 09:33N 40°41' W 074°04'0 0.0
2015-May-28 08:34N 40°41' W 074°04'0 0.0
2015-May-28 07:34N 40°41' W 074°04'0 0.0
2015-May-28 06:34N 40°41' W 074°04'0 0.0
2015-May-28 05:34N 40°41' W 074°04'0 0.0
2015-May-28 04:33N 40°41' W 074°04'0 0.0
2015-May-28 03:34N 40°41' W 074°04'0 0.0
2015-May-28 02:33N 40°41' W 074°04'0 0.0
2015-May-28 01:34N 40°41' W 074°04'0 0.0
2015-May-28 00:33N 40°41' W 074°04'0 0.0
2015-May-27 23:34N 40°41' W 074°04'0 0.0
2015-May-27 22:33N 40°41' W 074°04'0 0.0
2015-May-27 21:34N 40°41' W 074°04'0 0.0
2015-May-27 20:34N 40°41' W 074°04'0 0.0
2015-May-27 19:33N 40°41' W 074°04'0 0.0
2015-May-27 18:33N 40°41' W 074°05'0 0.1
2015-May-27 17:33N 40°41' W 074°04'0 0.0
2015-May-27 16:33N 40°41' W 074°05'0 0.0
2015-May-27 15:33N 40°41' W 074°05'0 0.1
2015-May-27 14:33N 40°41' W 074°05'0 0.4
2015-May-27 13:33N 40°40' W 074°04'5 4.9
2015-May-27 12:34N 40°45' W 074°01'0 0.1
2015-May-27 11:33N 40°45' W 074°01'0 0.0
2015-May-27 10:34N 40°45' W 074°01'5 4.9
2015-May-27 09:34N 40°41' W 074°05'0 0.0
2015-May-27 08:33N 40°41' W 074°05'0 0.0
2015-May-27 07:33N 40°41' W 074°05'0 0.0
2015-May-27 06:33N 40°41' W 074°05'0 0.0
2015-May-27 05:33N 40°41' W 074°05'0 0.0
2015-May-27 04:34N 40°41' W 074°05'0 0.0
2015-May-27 03:33N 40°41' W 074°05'0 0.0
2015-May-27 02:34N 40°41' W 074°05'0 0.0
2015-May-27 01:33N 40°41' W 074°05'0 0.0
2015-May-27 00:33N 40°41' W 074°05'4 3.6
2015-May-26 23:34N 40°42' W 074°00'1 1.3
2015-May-26 22:33N 40°42' W 073°58'0 0.0
2015-May-26 21:33N 40°42' W 073°58'5 4.9
2015-May-26 20:34N 40°41' W 074°05'0 0.0
2015-May-26 19:33N 40°41' W 074°05'0 0.0
2015-May-26 18:34N 40°41' W 074°05'0 0.0
2015-May-26 17:33N 40°41' W 074°05'0 0.0
2015-May-26 16:33N 40°41' W 074°05'0 0.0
2015-May-26 15:34N 40°41' W 074°05'0 0.0
2015-May-26 14:34N 40°41' W 074°05'0 0.0
2015-May-26 13:33N 40°41' W 074°05'0 0.0
2015-May-26 12:33N 40°41' W 074°05'0 0.0
2015-May-26 11:34N 40°41' W 074°05'0 0.0
2015-May-26 10:33N 40°41' W 074°05'0 0.0
2015-May-26 09:33N 40°41' W 074°05'0 0.0
2015-May-26 08:34N 40°41' W 074°05'0 0.0
2015-May-26 07:34N 40°41' W 074°05'0 0.0
2015-May-26 06:34N 40°41' W 074°05'0 0.0
2015-May-26 05:33N 40°41' W 074°05'0 0.0
2015-May-26 04:33N 40°41' W 074°05'0 0.0
2015-May-26 03:33N 40°41' W 074°05'0 0.0
2015-May-26 02:33N 40°41' W 074°05'0 0.0
2015-May-26 01:33N 40°41' W 074°05'0 0.0
2015-May-26 00:34N 40°41' W 074°05'0 0.0
2015-May-25 23:34N 40°41' W 074°05'0 0.0
2015-May-25 22:33N 40°41' W 074°05'0 0.0
2015-May-25 21:34N 40°41' W 074°05'0 0.0
2015-May-25 20:33N 40°41' W 074°05'0 0.0
2015-May-25 19:34N 40°41' W 074°05'0 0.0
2015-May-25 18:34N 40°41' W 074°05'0 0.0
2015-May-25 17:34N 40°41' W 074°05'0 0.0
2015-May-25 16:34N 40°41' W 074°05'0 0.0
2015-May-25 15:34N 40°41' W 074°05'0 0.0
2015-May-25 14:34N 40°41' W 074°05'0 0.0
2015-May-25 13:34N 40°41' W 074°05'0 0.0
2015-May-25 12:33N 40°41' W 074°05'0 0.0
2015-May-25 11:34N 40°41' W 074°05'0 0.0
2015-May-25 10:34N 40°41' W 074°05'0 0.0
2015-May-25 09:33N 40°41' W 074°05'0 0.0
2015-May-25 08:34N 40°41' W 074°05'0 0.0
2015-May-25 07:33N 40°41' W 074°05'0 0.0
2015-May-25 06:34N 40°41' W 074°05'0 0.0
2015-May-25 05:33N 40°41' W 074°05'0 0.0
2015-May-25 04:33N 40°41' W 074°05'0 0.0
2015-May-25 03:33N 40°41' W 074°05'0 0.0
2015-May-25 02:33N 40°41' W 074°05'0 0.0
2015-May-25 01:33N 40°41' W 074°05'0 0.0
2015-May-25 00:33N 40°41' W 074°05'0 0.0
2015-May-24 23:34N 40°41' W 074°05'0 0.0
2015-May-24 22:34N 40°41' W 074°05'0 0.0
2015-May-24 21:33N 40°41' W 074°05'0 0.0
2015-May-24 20:34N 40°41' W 074°05'0 0.0
2015-May-24 19:34N 40°41' W 074°05'0 0.0
2015-May-24 18:33N 40°41' W 074°05'0 0.0
2015-May-24 17:34N 40°41' W 074°05'0 0.0
2015-May-24 16:33N 40°41' W 074°05'0 0.0
2015-May-24 15:33N 40°41' W 074°05'0 0.0
2015-May-24 14:33N 40°41' W 074°05'0 0.0
2015-May-24 13:34N 40°41' W 074°05'0 0.0
2015-May-24 12:33N 40°41' W 074°05'0 0.0
2015-May-24 11:34N 40°41' W 074°05'0 0.0
2015-May-24 10:33N 40°41' W 074°05'0 0.0
2015-May-24 09:34N 40°41' W 074°05'0 0.0
2015-May-24 08:33N 40°41' W 074°05'0 0.0
2015-May-24 07:33N 40°41' W 074°05'0 0.0
2015-May-24 06:34N 40°41' W 074°05'0 0.0
2015-May-24 05:33N 40°41' W 074°05'0 0.0
2015-May-24 04:33N 40°41' W 074°05'0 0.0
2015-May-24 03:33N 40°41' W 074°05'0 0.0
2015-May-24 02:33N 40°41' W 074°05'0 0.0
2015-May-24 01:34N 40°41' W 074°05'0 0.0
2015-May-24 00:33N 40°41' W 074°05'0 0.0
2015-May-23 23:34N 40°41' W 074°05'0 0.0
2015-May-23 22:33N 40°41' W 074°05'0 0.0
2015-May-23 21:34N 40°41' W 074°05'0 0.0
2015-May-23 20:33N 40°41' W 074°05'0 0.0
2015-May-23 19:33N 40°41' W 074°05'0 0.0
2015-May-23 18:33N 40°41' W 074°05'0 0.1
2015-May-23 17:34N 40°40' W 074°05'0 0.1
2015-May-23 16:33N 40°41' W 074°05'0 0.0
2015-May-23 15:34N 40°41' W 074°05'0 0.0
2015-May-23 14:33N 40°41' W 074°05'0 0.0
2015-May-23 13:33N 40°41' W 074°05'0 0.0
2015-May-23 12:33N 40°41' W 074°05'0 0.0
2015-May-23 11:33N 40°41' W 074°05'0 0.0
2015-May-23 10:33N 40°41' W 074°05'0 0.0
2015-May-23 09:34N 40°41' W 074°05'0 0.0
2015-May-23 08:33N 40°41' W 074°05'0 0.0
2015-May-23 07:34N 40°41' W 074°05'0 0.0
2015-May-23 06:33N 40°41' W 074°05'0 0.0
2015-May-23 05:33N 40°41' W 074°05'0 0.0
2015-May-23 04:33N 40°41' W 074°05'0 0.0
2015-May-23 03:34N 40°41' W 074°05'0 0.0
2015-May-23 02:34N 40°41' W 074°05'0 0.0
2015-May-23 01:33N 40°41' W 074°05'0 0.0
2015-May-23 00:34N 40°41' W 074°05'0 0.0
2015-May-22 23:34N 40°41' W 074°05'0 0.0
2015-May-22 22:33N 40°41' W 074°05'0 0.0
2015-May-22 21:33N 40°41' W 074°05'0 0.0
2015-May-22 20:33N 40°41' W 074°05'0 0.0
2015-May-22 19:33N 40°41' W 074°05'0 0.1
2015-May-22 18:34N 40°40' W 074°05'0 0.1
2015-May-22 17:33N 40°41' W 074°05'0 0.5
2015-May-22 16:34N 40°40' W 074°04'0 0.5
2015-May-22 15:33N 40°41' W 074°05'0 0.0
2015-May-22 14:33N 40°41' W 074°05'0 0.0
2015-May-22 13:33N 40°41' W 074°05'0 0.0
2015-May-22 12:34N 40°41' W 074°05'0 0.0
2015-May-22 11:33N 40°41' W 074°05'0 0.0
2015-May-22 10:34N 40°41' W 074°05'0 0.0
2015-May-22 09:33N 40°41' W 074°05'0 0.0
2015-May-22 08:33N 40°41' W 074°05'0 0.0
2015-May-22 07:33N 40°41' W 074°05'0 0.0
2015-May-22 06:33N 40°41' W 074°05'0 0.0
2015-May-22 05:33N 40°41' W 074°05'0 0.0
2015-May-22 04:33N 40°41' W 074°05'0 0.0
2015-May-22 03:33N 40°41' W 074°05'0 0.0
2015-May-22 02:33N 40°41' W 074°05'0 0.0
2015-May-22 01:33N 40°41' W 074°05'0 0.0
2015-May-22 00:33N 40°41' W 074°05'0 0.0
2015-May-21 23:34N 40°41' W 074°05'0 0.0
2015-May-21 22:34N 40°41' W 074°05'0 0.0
2015-May-21 21:33N 40°41' W 074°05'0 0.0
2015-May-21 20:33N 40°41' W 074°05'0 0.0
2015-May-21 19:33N 40°41' W 074°05'0 0.0
2015-May-21 18:34N 40°41' W 074°05'0 0.0
2015-May-21 17:33N 40°41' W 074°05'0 0.0
2015-May-21 16:33N 40°41' W 074°05'0 0.0
2015-May-21 15:33N 40°41' W 074°05'0 0.0
2015-May-21 14:33N 40°41' W 074°05'0 0.0
2015-May-21 13:33N 40°41' W 074°05'0 0.0
2015-May-21 12:33N 40°41' W 074°05'0 0.2
2015-May-21 11:33N 40°41' W 074°04'0 0.2
2015-May-21 10:33N 40°41' W 074°05'0 0.0
2015-May-21 09:33N 40°41' W 074°05'0 0.0
2015-May-21 08:34N 40°41' W 074°05'0 0.0
2015-May-21 07:33N 40°41' W 074°05'0 0.0
2015-May-21 06:33N 40°41' W 074°05'0 0.0
2015-May-21 05:34N 40°41' W 074°05'0 0.0
2015-May-21 04:34N 40°41' W 074°05'0 0.0
2015-May-21 03:34N 40°41' W 074°05'0 0.0
2015-May-21 02:34N 40°41' W 074°05'0 0.0
2015-May-21 01:34N 40°41' W 074°05'0 0.0
2015-May-21 00:33N 40°41' W 074°05'0 0.0
2015-May-20 23:33N 40°41' W 074°05'0 0.0
2015-May-20 22:34N 40°41' W 074°05'0 0.0
2015-May-20 21:33N 40°41' W 074°05'0 0.0
2015-May-20 20:34N 40°41' W 074°05'0 0.0
2015-May-20 19:33N 40°41' W 074°05'0 0.0
2015-May-20 18:34N 40°41' W 074°05'  
Track history (hours):
 
Tides and Currents Weather Stations Pressure Air Temp Water Temp Dewpoint Dewpoint Depression Visibility Wind Speed Wind Dir Waves Ship Positions

Shelby

Owner: WEEKS MARINE, INC., CRANFORD, NJ. More information available from US FCC via Universal Licensing System and Coast Guard Vessel Documentation Center.

Last reported at 2015-May-30 18:33 UTC. Time now 2015-May-30 18:38 UTC.
Position N 40°41' W 074°04'.

Length 22 m; draft 3.1 m.

Type: Tug. MMSI: 366902344.

Date/timePositionNaut miles runAvg speedWind from/ knotsBaromVisibWave heightAir tempDewpointWater temp
2015-May-30 18:33N 40°41' W 074°04'0 0.0
2015-May-30 17:34N 40°41' W 074°04'0 0.0
2015-May-30 16:33N 40°41' W 074°04'0 0.0
2015-May-30 15:33N 40°41' W 074°04'0 0.0
2015-May-30 14:34N 40°41' W 074°05'0 0.0
2015-May-30 13:34N 40°41' W 074°05'0 0.0
2015-May-30 12:33N 40°41' W 074°05'0 0.0
2015-May-30 11:34N 40°41' W 074°04'0 0.0
2015-May-30 10:34N 40°41' W 074°04'0 0.0
2015-May-30 09:33N 40°41' W 074°04'0 0.0
2015-May-30 08:34N 40°41' W 074°04'0 0.0
2015-May-30 07:33N 40°41' W 074°04'0 0.0
2015-May-30 06:33N 40°41' W 074°04'0 0.0
2015-May-30 05:33N 40°41' W 074°04'0 0.0
2015-May-30 04:34N 40°41' W 074°04'0 0.0
2015-May-30 03:34N 40°41' W 074°04'0 0.0
2015-May-30 02:33N 40°41' W 074°04'0 0.0
2015-May-30 01:33N 40°41' W 074°04'0 0.0
2015-May-30 00:33N 40°41' W 074°04'0 0.0
2015-May-29 23:33N 40°41' W 074°04'0 0.0
2015-May-29 22:34N 40°41' W 074°04'0 0.0
2015-May-29 21:33N 40°41' W 074°04'0 0.0
2015-May-29 20:33N 40°41' W 074°04'0 0.0
2015-May-29 19:34N 40°41' W 074°04'0 0.0
2015-May-29 18:33N 40°41' W 074°04'0 0.0
2015-May-29 17:33N 40°41' W 074°04'0 0.0
2015-May-29 16:33N 40°41' W 074°04'0 0.0
2015-May-29 15:33N 40°41' W 074°04'0 0.0
2015-May-29 14:34N 40°41' W 074°04'4 3.9
2015-May-29 13:34N 40°39' W 074°09'3 2.9
2015-May-29 12:33N 40°41' W 074°08'0 0.0
2015-May-29 11:34N 40°41' W 074°08'0 0.0
2015-May-29 10:33N 40°41' W 074°08'3 3.2
2015-May-29 09:33N 40°39' W 074°06'2 1.8
2015-May-29 08:34N 40°40' W 074°04'0 0.0
2015-May-29 07:34N 40°40' W 074°04'0 0.0
2015-May-29 06:33N 40°40' W 074°04'0 0.0
2015-May-29 05:33N 40°40' W 074°04'0 0.0
2015-May-29 04:34N 40°40' W 074°04'0 0.0
2015-May-29 03:34N 40°40' W 074°04'0 0.0
2015-May-29 02:34N 40°40' W 074°04'0 0.0
2015-May-29 01:33N 40°40' W 074°04'0 0.0
2015-May-29 00:34N 40°40' W 074°04'0 0.0
2015-May-28 23:33N 40°40' W 074°04'0 0.0
2015-May-28 22:33N 40°40' W 074°04'0 0.1
2015-May-28 21:34N 40°40' W 074°05'0 0.1
2015-May-28 20:33N 40°41' W 074°04'0 0.2
2015-May-28 19:34N 40°41' W 074°04'0 0.0
2015-May-28 18:34N 40°41' W 074°04'0 0.1
2015-May-28 17:33N 40°40' W 074°04'0 0.2
2015-May-28 16:33N 40°41' W 074°04'0 0.0
2015-May-28 15:33N 40°41' W 074°04'0 0.0
2015-May-28 14:34N 40°41' W 074°04'0 0.1
2015-May-28 13:34N 40°41' W 074°05'0 0.0
2015-May-28 12:33N 40°41' W 074°05'0 0.0
2015-May-28 11:33N 40°41' W 074°04'0 0.0
2015-May-28 10:34N 40°41' W 074°04'0 0.0
2015-May-28 09:33N 40°41' W 074°04'0 0.0
2015-May-28 08:34N 40°41' W 074°04'0 0.0
2015-May-28 07:34N 40°41' W 074°04'0 0.0
2015-May-28 06:34N 40°41' W 074°04'0 0.0
2015-May-28 05:34N 40°41' W 074°04'0 0.0
2015-May-28 04:33N 40°41' W 074°04'0 0.0
2015-May-28 03:34N 40°41' W 074°04'0 0.0
2015-May-28 02:33N 40°41' W 074°04'0 0.0
2015-May-28 01:34N 40°41' W 074°04'0 0.0
2015-May-28 00:33N 40°41' W 074°04'0 0.0
2015-May-27 23:34N 40°41' W 074°04'0 0.0
2015-May-27 22:33N 40°41' W 074°04'0 0.0
2015-May-27 21:34N 40°41' W 074°04'0 0.0
2015-May-27 20:34N 40°41' W 074°04'0 0.0
2015-May-27 19:33N 40°41' W 074°04'0 0.0
2015-May-27 18:33N 40°41' W 074°05'0 0.1
2015-May-27 17:33N 40°41' W 074°04'0 0.0
2015-May-27 16:33N 40°41' W 074°05'0 0.0
2015-May-27 15:33N 40°41' W 074°05'0 0.1
2015-May-27 14:33N 40°41' W 074°05'0 0.4
2015-May-27 13:33N 40°40' W 074°04'5 4.9
2015-May-27 12:34N 40°45' W 074°01'0 0.1
2015-May-27 11:33N 40°45' W 074°01'0 0.0
2015-May-27 10:34N 40°45' W 074°01'5 4.9
2015-May-27 09:34N 40°41' W 074°05'0 0.0
2015-May-27 08:33N 40°41' W 074°05'0 0.0
2015-May-27 07:33N 40°41' W 074°05'0 0.0
2015-May-27 06:33N 40°41' W 074°05'0 0.0
2015-May-27 05:33N 40°41' W 074°05'0 0.0
2015-May-27 04:34N 40°41' W 074°05'0 0.0
2015-May-27 03:33N 40°41' W 074°05'0 0.0
2015-May-27 02:34N 40°41' W 074°05'0 0.0
2015-May-27 01:33N 40°41' W 074°05'0 0.0
2015-May-27 00:33N 40°41' W 074°05'4 3.6
2015-May-26 23:34N 40°42' W 074°00'1 1.3
2015-May-26 22:33N 40°42' W 073°58'0 0.0
2015-May-26 21:33N 40°42' W 073°58'5 4.9
2015-May-26 20:34N 40°41' W 074°05'0 0.0
2015-May-26 19:33N 40°41' W 074°05'0 0.0
2015-May-26 18:34N 40°41' W 074°05'0 0.0
2015-May-26 17:33N 40°41' W 074°05'0 0.0
2015-May-26 16:33N 40°41' W 074°05'0 0.0
2015-May-26 15:34N 40°41' W 074°05'0 0.0
2015-May-26 14:34N 40°41' W 074°05'0 0.0
2015-May-26 13:33N 40°41' W 074°05'0 0.0
2015-May-26 12:33N 40°41' W 074°05'0 0.0
2015-May-26 11:34N 40°41' W 074°05'0 0.0
2015-May-26 10:33N 40°41' W 074°05'0 0.0
2015-May-26 09:33N 40°41' W 074°05'0 0.0
2015-May-26 08:34N 40°41' W 074°05'0 0.0
2015-May-26 07:34N 40°41' W 074°05'0 0.0
2015-May-26 06:34N 40°41' W 074°05'0 0.0
2015-May-26 05:33N 40°41' W 074°05'0 0.0
2015-May-26 04:33N 40°41' W 074°05'0 0.0
2015-May-26 03:33N 40°41' W 074°05'0 0.0
2015-May-26 02:33N 40°41' W 074°05'0 0.0
2015-May-26 01:33N 40°41' W 074°05'0 0.0
2015-May-26 00:34N 40°41' W 074°05'0 0.0
2015-May-25 23:34N 40°41' W 074°05'0 0.0
2015-May-25 22:33N 40°41' W 074°05'0 0.0
2015-May-25 21:34N 40°41' W 074°05'0 0.0
2015-May-25 20:33N 40°41' W 074°05'0 0.0
2015-May-25 19:34N 40°41' W 074°05'0 0.0
2015-May-25 18:34N 40°41' W 074°05'0 0.0
2015-May-25 17:34N 40°41' W 074°05'0 0.0
2015-May-25 16:34N 40°41' W 074°05'0 0.0
2015-May-25 15:34N 40°41' W 074°05'0 0.0
2015-May-25 14:34N 40°41' W 074°05'0 0.0
2015-May-25 13:34N 40°41' W 074°05'0 0.0
2015-May-25 12:33N 40°41' W 074°05'0 0.0
2015-May-25 11:34N 40°41' W 074°05'0 0.0
2015-May-25 10:34N 40°41' W 074°05'0 0.0
2015-May-25 09:33N 40°41' W 074°05'0 0.0
2015-May-25 08:34N 40°41' W 074°05'0 0.0
2015-May-25 07:33N 40°41' W 074°05'0 0.0
2015-May-25 06:34N 40°41' W 074°05'0 0.0
2015-May-25 05:33N 40°41' W 074°05'0 0.0
2015-May-25 04:33N 40°41' W 074°05'0 0.0
2015-May-25 03:33N 40°41' W 074°05'0 0.0
2015-May-25 02:33N 40°41' W 074°05'0 0.0
2015-May-25 01:33N 40°41' W 074°05'0 0.0
2015-May-25 00:33N 40°41' W 074°05'0 0.0
2015-May-24 23:34N 40°41' W 074°05'0 0.0
2015-May-24 22:34N 40°41' W 074°05'0 0.0
2015-May-24 21:33N 40°41' W 074°05'0 0.0
2015-May-24 20:34N 40°41' W 074°05'0 0.0
2015-May-24 19:34N 40°41' W 074°05'0 0.0
2015-May-24 18:33N 40°41' W 074°05'0 0.0
2015-May-24 17:34N 40°41' W 074°05'0 0.0
2015-May-24 16:33N 40°41' W 074°05'0 0.0
2015-May-24 15:33N 40°41' W 074°05'0 0.0
2015-May-24 14:33N 40°41' W 074°05'0 0.0
2015-May-24 13:34N 40°41' W 074°05'0 0.0
2015-May-24 12:33N 40°41' W 074°05'0 0.0
2015-May-24 11:34N 40°41' W 074°05'0 0.0
2015-May-24 10:33N 40°41' W 074°05'0 0.0
2015-May-24 09:34N 40°41' W 074°05'0 0.0
2015-May-24 08:33N 40°41' W 074°05'0 0.0
2015-May-24 07:33N 40°41' W 074°05'0 0.0
2015-May-24 06:34N 40°41' W 074°05'0 0.0
2015-May-24 05:33N 40°41' W 074°05'0 0.0
2015-May-24 04:33N 40°41' W 074°05'0 0.0
2015-May-24 03:33N 40°41' W 074°05'0 0.0
2015-May-24 02:33N 40°41' W 074°05'0 0.0
2015-May-24 01:34N 40°41' W 074°05'0 0.0
2015-May-24 00:33N 40°41' W 074°05'0 0.0
2015-May-23 23:34N 40°41' W 074°05'0 0.0
2015-May-23 22:33N 40°41' W 074°05'0 0.0
2015-May-23 21:34N 40°41' W 074°05'0 0.0
2015-May-23 20:33N 40°41' W 074°05'0 0.0
2015-May-23 19:33N 40°41' W 074°05'0 0.0
2015-May-23 18:33N 40°41' W 074°05'0 0.1
2015-May-23 17:34N 40°40' W 074°05'0 0.1
2015-May-23 16:33N 40°41' W 074°05'0 0.0
2015-May-23 15:34N 40°41' W 074°05'0 0.0
2015-May-23 14:33N 40°41' W 074°05'0 0.0
2015-May-23 13:33N 40°41' W 074°05'0 0.0
2015-May-23 12:33N 40°41' W 074°05'0 0.0
2015-May-23 11:33N 40°41' W 074°05'0 0.0
2015-May-23 10:33N 40°41' W 074°05'0 0.0
2015-May-23 09:34N 40°41' W 074°05'0 0.0
2015-May-23 08:33N 40°41' W 074°05'0 0.0
2015-May-23 07:34N 40°41' W 074°05'0 0.0
2015-May-23 06:33N 40°41' W 074°05'0 0.0
2015-May-23 05:33N 40°41' W 074°05'0 0.0
2015-May-23 04:33N 40°41' W 074°05'0 0.0
2015-May-23 03:34N 40°41' W 074°05'0 0.0
2015-May-23 02:34N 40°41' W 074°05'0 0.0
2015-May-23 01:33N 40°41' W 074°05'0 0.0
2015-May-23 00:34N 40°41' W 074°05'0 0.0
2015-May-22 23:34N 40°41' W 074°05'0 0.0
2015-May-22 22:33N 40°41' W 074°05'0 0.0
2015-May-22 21:33N 40°41' W 074°05'0 0.0
2015-May-22 20:33N 40°41' W 074°05'0 0.0
2015-May-22 19:33N 40°41' W 074°05'0 0.1
2015-May-22 18:34N 40°40' W 074°05'0 0.1
2015-May-22 17:33N 40°41' W 074°05'0 0.5
2015-May-22 16:34N 40°40' W 074°04'0 0.5
2015-May-22 15:33N 40°41' W 074°05'0 0.0
2015-May-22 14:33N 40°41' W 074°05'0 0.0
2015-May-22 13:33N 40°41' W 074°05'0 0.0
2015-May-22 12:34N 40°41' W 074°05'0 0.0
2015-May-22 11:33N 40°41' W 074°05'0 0.0
2015-May-22 10:34N 40°41' W 074°05'0 0.0
2015-May-22 09:33N 40°41' W 074°05'0 0.0
2015-May-22 08:33N 40°41' W 074°05'0 0.0
2015-May-22 07:33N 40°41' W 074°05'0 0.0
2015-May-22 06:33N 40°41' W 074°05'0 0.0
2015-May-22 05:33N 40°41' W 074°05'0 0.0
2015-May-22 04:33N 40°41' W 074°05'0 0.0
2015-May-22 03:33N 40°41' W 074°05'0 0.0
2015-May-22 02:33N 40°41' W 074°05'0 0.0
2015-May-22 01:33N 40°41' W 074°05'0 0.0
2015-May-22 00:33N 40°41' W 074°05'0 0.0
2015-May-21 23:34N 40°41' W 074°05'0 0.0
2015-May-21 22:34N 40°41' W 074°05'0 0.0
2015-May-21 21:33N 40°41' W 074°05'0 0.0
2015-May-21 20:33N 40°41' W 074°05'0 0.0
2015-May-21 19:33N 40°41' W 074°05'0 0.0
2015-May-21 18:34N 40°41' W 074°05'0 0.0
2015-May-21 17:33N 40°41' W 074°05'0 0.0
2015-May-21 16:33N 40°41' W 074°05'0 0.0
2015-May-21 15:33N 40°41' W 074°05'0 0.0
2015-May-21 14:33N 40°41' W 074°05'0 0.0
2015-May-21 13:33N 40°41' W 074°05'0 0.0
2015-May-21 12:33N 40°41' W 074°05'0 0.2
2015-May-21 11:33N 40°41' W 074°04'0 0.2
2015-May-21 10:33N 40°41' W 074°05'0 0.0
2015-May-21 09:33N 40°41' W 074°05'0 0.0
2015-May-21 08:34N 40°41' W 074°05'0 0.0
2015-May-21 07:33N 40°41' W 074°05'0 0.0
2015-May-21 06:33N 40°41' W 074°05'0 0.0
2015-May-21 05:34N 40°41' W 074°05'0 0.0
2015-May-21 04:34N 40°41' W 074°05'0 0.0
2015-May-21 03:34N 40°41' W 074°05'0 0.0
2015-May-21 02:34N 40°41' W 074°05'0 0.0
2015-May-21 01:34N 40°41' W 074°05'0 0.0
2015-May-21 00:33N 40°41' W 074°05'0 0.0
2015-May-20 23:33N 40°41' W 074°05'0 0.0
2015-May-20 22:34N 40°41' W 074°05'0 0.0
2015-May-20 21:33N 40°41' W 074°05'0 0.0
2015-May-20 20:34N 40°41' W 074°05'0 0.0
2015-May-20 19:33N 40°41' W 074°05'0 0.0
2015-May-20 18:34N 40°41' W 074°05'  

Dump ship's entire track history